Time;durP1;ratioP1;P1;durP2;ratioP2;P2;SDS_P1;SDS_P2;PMS_P1;PMS_P2;Temp;Humidity;BMP_temperature;BMP_pressure;BME280_temperature;BME280_humidity;BME280_pressure;Samples;Min_cycle;Max_cycle;Signal;HPM_P1;HPM_P2
2021/04/26 00:01:07;;;;;;;19.50;6.03;;;;;;;7.89;58.43;100562.94;4996820;28;20040;-58
2021/04/26 00:03:40;;;;;;;11.67;5.50;;;;;;;7.87;58.05;100560.25;5014321;28;20065;-56
2021/04/26 00:06:13;;;;;;;9.88;5.30;;;;;;;7.87;58.25;100557.69;5014177;28;20100;-57
2021/04/26 00:08:49;;;;;;;10.95;5.35;;;;;;;7.85;57.84;100558.47;4996739;28;20034;-58
2021/04/26 00:11:21;;;;;;;9.45;4.88;;;;;;;7.84;57.86;100557.59;4996524;28;20049;-58
2021/04/26 00:13:52;;;;;;;8.23;4.97;;;;;;;7.82;58.08;100548.94;4996060;28;20573;-58
2021/04/26 00:16:22;;;;;;;18.00;4.57;;;;;;;7.82;58.09;100550.63;4996777;28;20037;-56
2021/04/26 00:18:54;;;;;;;8.50;4.50;;;;;;;7.80;58.29;100547.09;4995866;28;20038;-58
2021/04/26 00:21:25;;;;;;;7.57;5.05;;;;;;;7.78;57.87;100544.47;4996246;28;20030;-57
2021/04/26 00:23:59;;;;;;;9.67;5.33;;;;;;;7.76;58.02;100538.38;4996553;28;20034;-56
2021/04/26 00:26:29;;;;;;;9.57;5.28;;;;;;;7.75;58.02;100536.63;5013359;28;20655;-58
2021/04/26 00:29:03;;;;;;;8.48;5.28;;;;;;;7.75;58.38;100532.34;5013788;28;20069;-58
2021/04/26 00:31:34;;;;;;;11.30;5.10;;;;;;;7.73;57.88;100525.34;5013767;28;20486;-57
2021/04/26 00:34:05;;;;;;;12.68;6.07;;;;;;;7.73;58.29;100525.34;4996251;28;20030;-58
2021/04/26 00:36:40;;;;;;;9.77;4.67;;;;;;;7.70;58.30;100522.69;4996904;28;20030;-57
2021/04/26 00:39:11;;;;;;;12.33;5.63;;;;;;;7.69;57.87;100526.09;4996218;28;20038;-57
2021/04/26 00:41:42;;;;;;;13.95;5.45;;;;;;;7.68;57.88;100516.59;5013895;28;20280;-58
2021/04/26 00:44:13;;;;;;;10.23;4.90;;;;;;;7.67;57.96;100514.84;4996000;28;20050;-57
2021/04/26 00:46:47;;;;;;;10.30;5.80;;;;;;;7.65;58.34;100514.75;5013438;28;20038;-58
2021/04/26 00:49:23;;;;;;;9.57;5.78;;;;;;;7.62;58.08;100512.97;5013819;28;20132;-58
2021/04/26 00:51:54;;;;;;;9.63;5.85;;;;;;;7.62;58.05;100519.84;4996062;28;20480;-58
2021/04/26 00:54:23;;;;;;;8.57;5.53;;;;;;;7.60;57.85;100509.44;4979963;28;20053;-58
2021/04/26 00:56:54;;;;;;;13.10;5.88;;;;;;;7.58;58.30;100513.69;4995645;28;20070;-57
2021/04/26 00:59:25;;;;;;;8.27;5.25;;;;;;;7.58;57.85;100517.97;5013314;28;20046;-57
2021/04/26 01:01:51;;;;;;;10.45;6.03;;;;;;;7.58;58.25;100523.13;4995549;28;20058;-58
2021/04/26 01:04:25;;;;;;;8.60;5.80;;;;;;;7.55;58.28;100515.28;5013595;28;20049;-58
2021/04/26 01:06:58;;;;;;;11.23;5.63;;;;;;;7.53;58.05;100516.91;5013505;28;20042;-58
2021/04/26 01:09:34;;;;;;;17.85;6.32;;;;;;;7.54;58.45;100524.72;4995748;28;20030;-57
2021/04/26 01:12:13;;;;;;;11.75;6.13;;;;;;;7.52;58.05;100517.75;5013653;28;20038;-58
2021/04/26 01:15:08;;;;;;;7.13;5.03;;;;;;;7.51;58.23;100513.41;5013394;28;20512;-57
2021/04/26 01:17:45;;;;;;;8.13;5.43;;;;;;;7.49;58.43;100505.63;5012969;28;20072;-58
2021/04/26 01:20:33;;;;;;;9.98;6.18;;;;;;;7.49;57.93;100499.56;4995990;28;20375;-58
2021/04/26 01:23:53;;;;;;;9.18;5.50;;;;;;;7.48;58.42;100503.88;5012540;28;20057;-57
2021/04/26 01:26:46;;;;;;;9.20;5.35;;;;;;;7.48;58.26;100496.13;4931782;28;20034;-58
2021/04/26 01:29:25;;;;;;;11.07;6.47;;;;;;;7.45;58.14;100486.59;5013911;28;20123;-57
2021/04/26 01:32:28;;;;;;;8.00;5.82;;;;;;;7.45;58.08;100486.59;4979438;28;20045;-58
2021/04/26 01:34:59;;;;;;;8.35;6.55;;;;;;;7.44;58.05;100491.66;5012902;28;20040;-58
2021/04/26 01:37:36;;;;;;;8.63;5.75;;;;;;;7.44;58.36;100486.50;4996134;28;20129;-58
2021/04/26 01:40:12;;;;;;;9.75;5.75;;;;;;;7.43;58.24;100484.75;4995504;28;20116;-58
2021/04/26 01:42:46;;;;;;;12.50;6.07;;;;;;;7.42;58.23;100483.91;4995655;28;20033;-58
2021/04/26 01:45:21;;;;;;;;;;;;;;;7.41;58.31;100476.09;4979858;28;20034;-57
2021/04/26 01:47:58;;;;;;;14.32;5.72;;;;;;;7.42;58.05;100477.84;5013523;28;19918;-58
2021/04/26 01:50:34;;;;;;;14.48;6.68;;;;;;;7.41;58.34;100476.09;5013338;28;20034;-58
2021/04/26 01:53:16;;;;;;;11.75;6.47;;;;;;;7.43;58.28;100474.44;5013190;28;20037;-58
2021/04/26 01:55:48;;;;;;;12.43;6.68;;;;;;;7.41;58.25;100476.97;4995849;28;20030;-58
2021/04/26 01:58:19;;;;;;;11.68;5.97;;;;;;;7.39;58.45;100470.88;5016638;28;20088;-57
2021/04/26 02:00:53;;;;;;;7.60;5.85;;;;;;;7.39;58.57;100476.03;4999223;28;20088;-57
2021/04/26 02:03:35;;;;;;;12.07;5.20;;;;;;;7.37;58.42;100477.69;5016475;28;20042;-58
2021/04/26 02:06:13;;;;;;;9.57;6.22;;;;;;;7.35;58.37;100470.72;4998855;28;20029;-57
2021/04/26 02:08:46;;;;;;;10.80;6.53;;;;;;;7.34;58.47;100475.00;4998989;28;20124;-57
2021/04/26 02:11:21;;;;;;;12.25;6.75;;;;;;;7.33;58.14;100468.06;5016393;28;20120;-58
2021/04/26 02:13:55;;;;;;;7.03;6.00;;;;;;;7.32;58.39;100469.78;5016115;28;20034;-58
2021/04/26 02:16:31;;;;;;;8.63;6.13;;;;;;;7.31;58.26;100465.44;4999045;28;20093;-57
2021/04/26 02:19:02;;;;;;;16.42;6.03;;;;;;;7.29;58.83;100459.34;5016438;28;20076;-58
2021/04/26 02:21:35;;;;;;;15.15;6.85;;;;;;;7.30;58.05;100462.81;4998943;28;20034;-58
2021/04/26 02:24:20;;;;;;;9.93;6.15;;;;;;;7.30;58.26;100457.66;4999051;28;20038;-58
2021/04/26 02:26:51;;;;;;;8.80;6.05;;;;;;;7.29;58.84;100455.91;5015861;28;20084;-58
2021/04/26 02:29:22;;;;;;;12.10;6.80;;;;;;;7.28;58.54;100451.59;4998211;28;20026;-58
2021/04/26 02:31:59;;;;;;;8.23;6.65;;;;;;;7.25;58.15;100448.88;4998524;28;20045;-58
2021/04/26 02:34:38;;;;;;;9.48;6.32;;;;;;;7.25;58.41;100444.59;5016043;28;20132;-57
2021/04/26 02:37:29;;;;;;;14.05;7.40;;;;;;;7.22;58.40;100446.19;5015729;28;20100;-57
2021/04/26 02:40:04;;;;;;;11.75;6.63;;;;;;;7.22;58.77;100447.09;5016069;28;20037;-58
2021/04/26 02:42:40;;;;;;;10.52;7.10;;;;;;;7.21;58.74;100441.84;4998533;28;20117;-58
2021/04/26 02:45:16;;;;;;;8.68;6.10;;;;;;;7.21;58.84;100445.31;4998087;28;20400;-57
2021/04/26 02:47:50;;;;;;;10.93;7.03;;;;;;;7.19;58.19;100436.66;5012773;28;20120;-57
2021/04/26 02:50:27;;;;;;;10.65;6.50;;;;;;;7.20;58.39;100434.94;4998313;28;20034;-57
2021/04/26 02:53:04;;;;;;;9.93;6.07;;;;;;;7.19;58.34;100435.75;5015098;28;20030;-58
2021/04/26 02:55:38;;;;;;;17.90;8.07;;;;;;;7.18;58.70;100436.56;4997692;28;20038;-58
2021/04/26 02:58:14;;;;;;;9.43;6.50;;;;;;;7.15;58.43;100438.25;4997705;28;20493;-58
2021/04/26 03:00:50;;;;;;;11.95;7.07;;;;;;;7.14;58.75;100431.34;4998234;28;20034;-57
2021/04/26 03:03:28;;;;;;;11.20;7.75;;;;;;;7.14;58.21;100427.88;5015368;28;20136;-57
2021/04/26 03:06:07;;;;;;;12.65;7.72;;;;;;;7.15;58.36;100427.06;5014795;28;20045;-58
2021/04/26 03:08:41;;;;;;;11.90;6.38;;;;;;;7.14;58.36;100420.13;5014939;28;20038;-58
2021/04/26 03:11:14;;;;;;;9.40;6.60;;;;;;;7.13;58.26;100421.84;4997817;28;20091;-58
2021/04/26 03:13:48;;;;;;;10.77;6.40;;;;;;;7.12;58.87;100422.66;4997268;28;20030;-57
2021/04/26 03:16:28;;;;;;;11.38;6.85;;;;;;;7.11;58.92;100417.44;5015113;28;20132;-57
2021/04/26 03:19:02;;;;;;;8.48;6.47;;;;;;;7.11;58.73;100412.28;4997641;28;20056;-57
2021/04/26 03:21:40;;;;;;;12.38;7.20;;;;;;;7.11;58.42;100412.28;4997124;28;20126;-58
2021/04/26 03:24:16;;;;;;;11.23;6.63;;;;;;;7.09;58.61;100407.09;4997199;28;20097;-58
2021/04/26 03:26:50;;;;;;;8.07;7.03;;;;;;;7.09;58.70;100408.78;4981088;28;20064;-58
2021/04/26 03:29:25;;;;;;;9.90;6.80;;;;;;;7.08;58.42;100410.50;5014972;28;20048;-57
2021/04/26 03:31:59;;;;;;;7.00;5.55;;;;;;;7.07;59.09;100400.13;5014257;28;20493;-57
2021/04/26 03:34:27;;;;;;;10.75;6.53;;;;;;;7.07;58.84;100403.56;4981027;28;20501;-57
2021/04/26 03:36:57;;;;;;;11.77;7.85;;;;;;;7.05;58.45;100405.22;4980823;28;20049;-57
2021/04/26 03:39:28;;;;;;;12.05;6.85;;;;;;;7.04;58.76;100390.56;4996723;28;20034;-57
2021/04/26 03:41:59;;;;;;;10.73;6.55;;;;;;;7.04;59.02;100395.72;5014804;28;20037;-58
2021/04/26 03:44:31;;;;;;;11.13;6.22;;;;;;;7.01;58.58;100383.63;4997427;28;20547;-58
2021/04/26 03:47:01;;;;;;;11.65;6.63;;;;;;;7.02;58.61;100379.31;4997084;28;20041;-58
2021/04/26 03:49:32;;;;;;;10.30;6.68;;;;;;;7.01;59.06;100375.88;5014430;28;20113;-58
2021/04/26 03:52:06;;;;;;;16.10;7.30;;;;;;;6.99;59.07;100380.09;5014489;28;20041;-57
2021/04/26 03:54:37;;;;;;;15.50;6.10;;;;;;;6.98;58.73;100383.50;4996966;28;20056;-57
2021/04/26 03:57:08;;;;;;;8.18;5.95;;;;;;;6.98;59.07;100375.78;5013877;28;20037;-57
2021/04/26 03:59:42;;;;;;;9.13;6.18;;;;;;;6.97;58.52;100380.88;5014512;28;20045;-57
2021/04/26 04:02:10;;;;;;;11.48;6.30;;;;;;;6.95;58.90;100382.53;4996764;28;20085;-58
2021/04/26 04:04:45;;;;;;;9.00;6.15;;;;;;;6.93;58.78;100379.88;4980373;28;20037;-58
2021/04/26 04:07:16;;;;;;;9.18;6.03;;;;;;;6.93;58.49;100384.16;5014259;28;20045;-58
2021/04/26 04:09:47;;;;;;;14.90;5.78;;;;;;;6.90;59.09;100379.78;4997533;28;20046;-58
2021/04/26 04:12:18;;;;;;;8.88;5.75;;;;;;;6.89;58.81;100383.19;5014076;28;20125;-58
2021/04/26 04:14:49;;;;;;;;;;;;;;;6.87;59.06;100379.66;4997556;28;20030;-57
2021/04/26 04:17:23;;;;;;;14.23;6.20;;;;;;;6.86;58.71;100383.91;4996211;28;19920;-58
2021/04/26 04:19:52;;;;;;;10.43;5.78;;;;;;;6.84;59.14;100384.69;4996050;28;20490;-57
2021/04/26 04:22:24;;;;;;;9.45;5.68;;;;;;;6.84;58.67;100384.69;4996199;28;20061;-57
2021/04/26 04:24:54;;;;;;;12.57;6.07;;;;;;;6.84;59.21;100382.13;5014171;28;20053;-57
2021/04/26 04:27:23;;;;;;;12.20;6.25;;;;;;;6.83;58.80;100383.84;5013540;28;20026;-58
2021/04/26 04:29:54;;;;;;;10.10;6.38;;;;;;;6.80;58.64;100388.88;5013784;28;20034;-57
2021/04/26 04:32:25;;;;;;;13.18;5.90;;;;;;;6.82;58.65;100386.34;5013823;28;20044;-58
2021/04/26 04:34:58;;;;;;;16.23;7.60;;;;;;;6.80;59.29;100390.56;5014081;28;20037;-57
2021/04/26 04:37:29;;;;;;;14.80;6.25;;;;;;;6.80;58.66;100398.28;4997026;28;20137;-58
2021/04/26 04:39:58;;;;;;;10.48;6.43;;;;;;;6.80;58.59;100400.84;4996602;28;20038;-57
2021/04/26 04:42:31;;;;;;;13.38;6.47;;;;;;;6.81;58.79;100405.19;4996529;28;20041;-57
2021/04/26 04:45:02;;;;;;;8.75;6.03;;;;;;;6.79;59.14;100402.56;4996465;28;20048;-58
2021/04/26 04:47:33;;;;;;;9.38;6.00;;;;;;;6.78;59.01;100402.50;4996686;28;20065;-58
2021/04/26 04:50:10;;;;;;;12.37;6.90;;;;;;;6.78;58.94;100400.81;4996404;28;20030;-57
2021/04/26 04:52:42;;;;;;;15.57;6.55;;;;;;;6.79;58.83;100401.69;4996114;28;20065;-58
2021/04/26 04:55:13;;;;;;;12.38;7.43;;;;;;;6.78;59.18;100402.50;5013190;28;20482;-57
2021/04/26 04:57:43;;;;;;;11.30;6.95;;;;;;;6.76;58.96;100396.44;5013499;28;20030;-57
2021/04/26 05:00:20;;;;;;;9.68;6.85;;;;;;;6.76;59.28;100401.59;5013768;28;20040;-58
2021/04/26 05:02:49;;;;;;;9.70;6.65;;;;;;;6.75;59.39;100390.38;5013694;28;20050;-57
2021/04/26 05:05:19;;;;;;;14.70;7.32;;;;;;;6.74;59.01;100392.91;4979792;28;20030;-57
2021/04/26 05:07:56;;;;;;;11.45;7.72;;;;;;;6.74;58.88;100392.91;4995898;28;20052;-58
2021/04/26 05:10:30;;;;;;;9.45;6.43;;;;;;;6.73;59.15;100399.75;4996245;28;20046;-57
2021/04/26 05:12:58;;;;;;;11.80;7.20;;;;;;;6.74;59.29;100392.91;5013668;28;20101;-57
2021/04/26 05:15:31;;;;;;;9.05;6.18;;;;;;;6.72;58.75;100390.28;4979539;28;20504;-57
2021/04/26 05:18:02;;;;;;;16.50;7.93;;;;;;;6.72;59.11;100394.56;5013502;28;20038;-58
2021/04/26 05:20:38;;;;;;;13.07;6.10;;;;;;;6.70;59.41;100395.38;4995770;28;20063;-57
2021/04/26 05:23:06;;;;;;;11.43;6.88;;;;;;;6.72;59.42;100405.72;4996004;28;20061;-57
2021/04/26 05:25:38;;;;;;;15.88;6.95;;;;;;;6.72;59.25;100410.88;4995872;28;20040;-58
2021/04/26 05:28:09;;;;;;;15.13;7.07;;;;;;;6.74;59.34;100406.66;5013169;28;20030;-57
2021/04/26 05:30:45;;;;;;;7.45;6.05;;;;;;;6.76;59.38;100401.59;5013613;28;20034;-57
2021/04/26 05:33:17;;;;;;;11.50;7.25;;;;;;;6.74;58.73;100401.50;4999349;28;20057;-57
2021/04/26 05:35:50;;;;;;;15.05;8.13;;;;;;;6.76;59.57;100399.88;4999526;28;20042;-58
2021/04/26 05:38:22;;;;;;;11.32;6.78;;;;;;;6.75;59.49;100394.69;4999541;28;20112;-58
2021/04/26 05:40:52;;;;;;;9.02;5.68;;;;;;;6.77;59.36;100393.03;5016827;28;20129;-58
2021/04/26 05:43:23;;;;;;;12.25;6.38;;;;;;;6.77;59.66;100393.91;5016693;28;20069;-57
2021/04/26 05:45:54;;;;;;;12.65;6.50;;;;;;;6.77;59.51;100400.78;4999796;28;20038;-57
2021/04/26 05:48:25;;;;;;;13.68;7.18;;;;;;;6.78;59.74;100410.22;4999700;28;20040;-57
2021/04/26 05:50:56;;;;;;;11.48;6.50;;;;;;;6.79;59.64;100409.41;5016691;28;20042;-58
2021/04/26 05:53:25;;;;;;;12.68;7.45;;;;;;;6.80;59.06;100414.63;5016774;28;20478;-58
2021/04/26 05:55:55;;;;;;;13.30;7.40;;;;;;;6.81;59.57;100406.09;4999132;28;20041;-57
2021/04/26 05:58:26;;;;;;;12.68;7.18;;;;;;;6.82;59.08;100404.38;4998819;28;20038;-57
2021/04/26 06:00:55;;;;;;;15.55;8.32;;;;;;;6.81;59.75;100411.25;4999315;28;20037;-57
2021/04/26 06:03:28;;;;;;;11.23;7.30;;;;;;;6.84;59.81;100415.63;5016656;28;20057;-57
2021/04/26 06:05:57;;;;;;;16.85;6.82;;;;;;;6.84;59.45;100413.94;5017023;28;20030;-58
2021/04/26 06:08:29;;;;;;;14.93;7.03;;;;;;;6.84;59.53;100413.94;5016211;28;20038;-57
2021/04/26 06:11:00;;;;;;;11.18;6.63;;;;;;;6.85;59.30;100418.25;5016614;28;20087;-58
2021/04/26 06:13:29;;;;;;;11.82;6.60;;;;;;;6.86;59.45;100408.81;5015907;28;20038;-57
2021/04/26 06:15:57;;;;;;;11.57;5.97;;;;;;;6.88;59.23;100407.19;5015839;28;20026;-57
2021/04/26 06:18:30;;;;;;;10.73;6.50;;;;;;;6.90;59.07;100402.09;5016340;28;20033;-58
2021/04/26 06:21:01;;;;;;;12.57;6.97;;;;;;;6.89;59.31;100395.16;5016231;28;20034;-57
2021/04/26 06:23:29;;;;;;;10.90;5.80;;;;;;;6.91;59.58;100391.84;5016582;28;20037;-57
2021/04/26 06:26:02;;;;;;;18.67;7.07;;;;;;;6.92;59.64;100403.91;5016756;28;20030;-58
2021/04/26 06:28:33;;;;;;;9.63;6.57;;;;;;;6.92;59.52;100390.13;5015940;28;20120;-57
2021/04/26 06:31:04;;;;;;;15.73;7.25;;;;;;;6.92;59.40;100401.34;5016087;28;20072;-58
2021/04/26 06:33:29;;;;;;;8.80;6.53;;;;;;;6.94;59.72;100388.50;5015895;28;20049;-57
2021/04/26 06:36:00;;;;;;;10.60;7.32;;;;;;;6.97;59.72;100388.63;5015551;28;20401;-58
2021/04/26 06:38:32;;;;;;;12.27;7.10;;;;;;;6.97;59.41;100386.03;4981936;28;20129;-58
2021/04/26 06:41:02;;;;;;;17.35;7.22;;;;;;;6.99;59.46;100390.41;5016012;28;20501;-57
2021/04/26 06:43:36;;;;;;;12.40;7.10;;;;;;;6.99;59.35;100387.84;4997761;28;20056;-58
2021/04/26 06:46:05;;;;;;;10.15;7.10;;;;;;;7.03;59.50;100387.94;4982015;28;20408;-58
2021/04/26 06:48:38;;;;;;;12.70;7.55;;;;;;;7.04;59.47;100374.25;5015318;28;20033;-58
2021/04/26 06:51:06;;;;;;;11.48;7.32;;;;;;;7.04;59.40;100372.53;5015471;28;20037;-57
2021/04/26 06:53:37;;;;;;;14.50;6.85;;;;;;;7.03;59.84;100364.75;5015724;28;20038;-57
2021/04/26 06:56:06;;;;;;;12.50;7.03;;;;;;;7.05;59.75;100365.69;5015586;28;20440;-57
2021/04/26 06:58:37;;;;;;;14.43;7.30;;;;;;;7.07;59.58;100370.06;4997843;28;20041;-57
2021/04/26 07:01:03;;;;;;;14.85;8.50;;;;;;;7.07;59.50;100361.47;5015809;28;20046;-57
2021/04/26 07:03:32;;;;;;;11.80;7.13;;;;;;;7.07;59.29;100359.75;4997886;28;20512;-57
2021/04/26 07:06:06;;;;;;;11.13;6.65;;;;;;;7.08;60.12;100360.66;4981317;28;20405;-58
2021/04/26 07:08:34;;;;;;;10.35;7.25;;;;;;;7.10;59.30;100366.72;5015254;28;20034;-57
2021/04/26 07:11:02;;;;;;;11.27;7.25;;;;;;;7.10;59.65;100353.81;5015030;28;20048;-58
2021/04/26 07:13:36;;;;;;;9.60;7.43;;;;;;;7.09;59.62;100345.22;5015089;28;20030;-57
2021/04/26 07:16:12;;;;;;;14.73;7.90;;;;;;;7.12;59.98;100347.03;5015605;28;20512;-58
2021/04/26 07:18:40;;;;;;;11.85;7.38;;;;;;;7.13;59.62;100348.78;4997344;28;20077;-58
2021/04/26 07:21:13;;;;;;;12.25;7.07;;;;;;;7.14;59.94;100343.69;4997165;28;20453;-58
2021/04/26 07:23:42;;;;;;;10.63;6.93;;;;;;;7.15;59.33;100341.97;5015382;28;20037;-58
2021/04/26 07:26:12;;;;;;;12.77;7.50;;;;;;;7.16;59.90;100339.44;5015283;28;20045;-58
2021/04/26 07:28:41;;;;;;;11.13;6.88;;;;;;;7.17;59.53;100342.91;5014828;28;20096;-58
2021/04/26 07:31:12;;;;;;;14.05;7.53;;;;;;;7.19;59.91;100345.53;4997338;28;20080;-57
2021/04/26 07:33:43;;;;;;;12.13;7.03;;;;;;;7.21;59.80;100341.31;4980629;28;20026;-58
2021/04/26 07:36:15;;;;;;;17.42;6.93;;;;;;;7.22;59.68;100340.50;4997142;28;20050;-58
2021/04/26 07:38:43;;;;;;;14.73;7.10;;;;;;;7.22;60.22;100332.75;5015103;28;20041;-57
2021/04/26 07:41:14;;;;;;;12.73;7.40;;;;;;;7.23;59.82;100337.97;5014576;28;20508;-58
2021/04/26 07:43:42;;;;;;;12.55;6.35;;;;;;;7.25;59.77;100340.59;5014768;28;20551;-58
2021/04/26 07:46:14;;;;;;;11.23;6.53;;;;;;;7.24;59.77;100331.97;5014554;28;20134;-57
2021/04/26 07:48:45;;;;;;;13.38;6.95;;;;;;;7.25;59.83;100330.28;5014623;28;20125;-58
2021/04/26 07:51:17;;;;;;;12.77;6.65;;;;;;;7.26;59.94;100332.91;4996950;28;20034;-58
2021/04/26 07:53:47;;;;;;;13.15;6.38;;;;;;;7.28;60.16;100333.84;5013836;28;20030;-58
2021/04/26 07:56:15;;;;;;;13.85;6.63;;;;;;;7.29;59.84;100327.84;5014637;28;20076;-57
2021/04/26 07:58:44;;;;;;;10.35;6.63;;;;;;;7.30;60.06;100324.47;5014134;28;20557;-58
2021/04/26 08:01:12;;;;;;;12.32;6.68;;;;;;;7.31;59.58;100326.22;5014329;28;20041;-58
2021/04/26 08:03:42;;;;;;;15.65;6.80;;;;;;;7.31;60.05;100326.22;5014057;28;20046;-58
2021/04/26 08:06:16;;;;;;;10.73;6.15;;;;;;;7.34;59.60;100317.69;5014317;28;20037;-57
2021/04/26 08:08:46;;;;;;;11.15;7.05;;;;;;;7.34;60.23;100330.59;5014230;28;20479;-57
2021/04/26 08:11:15;;;;;;;10.90;6.70;;;;;;;7.36;59.92;100328.06;4996786;28;20037;-57
2021/04/26 08:13:47;;;;;;;12.98;6.40;;;;;;;7.36;59.59;100328.94;4997023;28;20042;-58
2021/04/26 08:16:16;;;;;;;12.57;6.90;;;;;;;7.37;59.69;100333.28;4996560;28;20041;-57
2021/04/26 08:18:45;;;;;;;9.45;5.63;;;;;;;7.40;59.81;100332.50;4996584;28;20041;-58
2021/04/26 08:21:13;;;;;;;10.38;6.32;;;;;;;7.41;59.71;100337.72;5014200;28;20033;-57
2021/04/26 08:23:42;;;;;;;14.40;6.65;;;;;;;7.42;59.71;100330.84;4996769;28;20038;-58
2021/04/26 08:26:08;;;;;;;12.60;7.05;;;;;;;7.44;59.84;100326.63;5014051;28;20040;-58
2021/04/26 08:28:34;;;;;;;11.27;7.20;;;;;;;7.44;59.45;100324.94;4996166;28;20030;-58
2021/04/26 08:31:06;;;;;;;8.38;5.80;;;;;;;7.46;59.74;100324.97;5013536;28;20065;-58
2021/04/26 08:33:36;;;;;;;7.70;5.95;;;;;;;7.48;59.75;100328.47;5014214;28;20041;-58
2021/04/26 08:36:04;;;;;;;9.90;6.45;;;;;;;7.51;59.58;100325.13;5013653;28;20038;-58
2021/04/26 08:38:29;;;;;;;10.65;6.10;;;;;;;7.52;59.66;100329.44;4996348;28;20156;-58
2021/04/26 08:40:58;;;;;;;8.15;5.82;;;;;;;7.53;59.37;100336.38;5013568;28;20536;-58
2021/04/26 08:43:23;;;;;;;8.27;5.53;;;;;;;7.54;59.34;100325.22;4996125;28;20118;-58
2021/04/26 08:45:52;;;;;;;10.57;4.80;;;;;;;7.54;59.51;100323.53;5013664;28;20123;-58
2021/04/26 08:48:24;;;;;;;9.52;5.60;;;;;;;7.56;59.40;100324.44;5013680;28;20037;-58
2021/04/26 08:50:56;;;;;;;8.27;5.00;;;;;;;7.58;59.16;100324.50;5013528;28;20485;-58
2021/04/26 08:53:30;;;;;;;12.23;5.60;;;;;;;7.60;59.55;100318.56;5013605;28;20096;-58
2021/04/26 08:55:55;;;;;;;11.90;5.63;;;;;;;7.61;59.43;100315.16;4996083;28;20121;-58
2021/04/26 08:58:21;;;;;;;11.05;5.25;;;;;;;7.65;59.46;100316.13;5013370;28;20121;-58
2021/04/26 09:00:49;;;;;;;9.82;5.57;;;;;;;7.65;59.63;100312.69;4995990;28;20057;-58
2021/04/26 09:03:17;;;;;;;7.55;5.10;;;;;;;7.68;59.22;100318.81;5013495;28;20413;-58
2021/04/26 09:05:47;;;;;;;10.70;5.03;;;;;;;7.70;59.37;100312.00;5015507;28;20046;-58
2021/04/26 09:08:20;;;;;;;10.52;4.65;;;;;;;7.72;59.23;100312.94;5000089;28;20041;-58
2021/04/26 09:10:49;;;;;;;6.97;4.70;;;;;;;7.73;58.95;100314.69;5000232;28;20041;-58
2021/04/26 09:13:25;;;;;;;10.10;3.83;;;;;;;7.74;58.84;100300.94;5017140;28;20046;-58
2021/04/26 09:15:55;;;;;;;11.80;5.13;;;;;;;7.77;59.03;100307.91;4999726;28;20125;-58
2021/04/26 09:18:45;;;;;;;13.57;4.95;;;;;;;7.80;59.17;100302.84;4983459;28;20409;-58
2021/04/26 09:21:28;;;;;;;7.93;4.45;;;;;;;7.80;59.17;100305.44;5017319;28;20041;-58
2021/04/26 09:24:17;;;;;;;9.35;3.60;;;;;;;7.80;59.10;100297.69;5000085;28;20045;-57
2021/04/26 09:26:48;;;;;;;13.75;4.55;;;;;;;7.83;58.99;100302.94;4999563;28;20045;-57
2021/04/26 09:29:27;;;;;;;7.55;4.10;;;;;;;7.85;59.01;100298.72;5016904;28;20037;-58
2021/04/26 09:32:11;;;;;;;11.95;4.13;;;;;;;7.85;59.16;100293.56;5017329;28;20403;-58
2021/04/26 09:34:43;;;;;;;6.25;3.92;;;;;;;7.87;59.02;100297.03;5016739;28;20482;-58
2021/04/26 09:37:17;;;;;;;;;;;;;;;7.90;58.85;100291.09;4983971;28;20116;-58
2021/04/26 09:40:14;;;;;;;6.20;4.07;;;;;;;7.91;58.97;100278.25;4999334;28;19971;-58
2021/04/26 09:42:47;;;;;;;6.93;3.80;;;;;;;7.91;58.63;100280.81;5016854;28;20124;-58
2021/04/26 09:45:37;;;;;;;6.68;3.50;;;;;;;7.92;58.70;100274.84;4983338;28;20308;-58
2021/04/26 09:48:12;;;;;;;7.03;3.92;;;;;;;7.95;59.02;100268.00;5016568;28;20045;-58
2021/04/26 09:50:57;;;;;;;5.35;3.92;;;;;;;7.96;58.72;100269.78;4999506;28;20382;-58
2021/04/26 09:53:49;;;;;;;9.57;3.90;;;;;;;7.98;58.43;100268.13;5016215;28;20041;-58
2021/04/26 09:56:33;;;;;;;6.18;4.00;;;;;;;7.99;58.89;100269.88;5016743;28;20460;-58
2021/04/26 09:59:07;;;;;;;9.02;3.67;;;;;;;8.00;58.67;100264.75;4999190;28;20034;-58
2021/04/26 10:01:35;;;;;;;5.90;3.67;;;;;;;8.02;58.78;100255.34;4998915;28;20145;-58
2021/04/26 10:04:03;;;;;;;8.07;3.63;;;;;;;8.03;58.53;100259.69;5016490;28;20057;-58
2021/04/26 10:06:39;;;;;;;8.77;3.00;;;;;;;8.05;58.71;100257.13;4998442;28;20386;-58
2021/04/26 10:09:13;;;;;;;9.15;3.70;;;;;;;8.05;58.46;100245.13;4998740;28;20034;-58
2021/04/26 10:11:43;;;;;;;10.90;4.05;;;;;;;8.07;58.56;100250.31;5016665;28;20034;-58
2021/04/26 10:14:12;;;;;;;7.78;4.32;;;;;;;8.07;58.57;100229.66;5016523;28;20037;-58
2021/04/26 10:17:00;;;;;;;8.95;4.03;;;;;;;8.08;58.51;100239.16;4997951;28;20042;-58
2021/04/26 10:19:46;;;;;;;5.07;3.25;;;;;;;8.10;58.38;100229.75;4998421;28;20038;-58
2021/04/26 10:22:36;;;;;;;5.68;3.35;;;;;;;8.11;58.39;100231.50;4999116;28;20057;-58
2021/04/26 10:25:10;;;;;;;6.50;3.38;;;;;;;8.13;58.20;100228.97;4998756;28;20030;-58
2021/04/26 10:27:43;;;;;;;5.65;3.53;;;;;;;8.14;57.94;100223.84;5016279;28;20504;-58
2021/04/26 10:30:11;;;;;;;4.40;3.00;;;;;;;8.14;58.35;100223.84;4998168;28;20037;-58
2021/04/26 10:33:08;;;;;;;5.28;3.35;;;;;;;8.16;58.15;100221.31;5015481;28;20048;-58
2021/04/26 10:35:53;;;;;;;5.05;2.80;;;;;;;8.17;58.07;100212.72;5015138;28;20489;-58
2021/04/26 10:38:37;;;;;;;4.97;3.63;;;;;;;8.19;58.05;100213.66;5015843;28;20041;-58
2021/04/26 10:41:05;;;;;;;5.78;3.58;;;;;;;8.19;58.08;100208.50;5015907;28;20034;-58
2021/04/26 10:43:36;;;;;;;6.45;3.10;;;;;;;8.21;57.92;100209.41;5015966;28;20038;-58
2021/04/26 10:46:14;;;;;;;10.00;3.95;;;;;;;8.24;58.02;100204.34;5015822;28;20111;-58
2021/04/26 10:49:07;;;;;;;7.05;3.70;;;;;;;8.26;57.94;100206.94;5015349;28;20038;-58
2021/04/26 10:51:37;;;;;;;8.80;3.63;;;;;;;8.27;57.95;100195.78;4982145;28;20034;-58
2021/04/26 10:54:10;;;;;;;5.28;3.25;;;;;;;8.29;57.56;100192.41;5015349;28;20034;-57
2021/04/26 10:56:42;;;;;;;9.77;3.38;;;;;;;8.28;57.56;100190.66;4998333;28;20034;-58
2021/04/26 10:59:16;;;;;;;5.82;3.55;;;;;;;8.30;57.44;100188.13;4981797;28;20038;-58
2021/04/26 11:01:51;;;;;;;7.47;3.60;;;;;;;8.32;57.71;100186.47;5015477;28;20041;-58
2021/04/26 11:04:18;;;;;;;6.78;3.00;;;;;;;8.32;57.41;100189.91;5015673;28;20104;-58
2021/04/26 11:07:18;;;;;;;5.53;3.25;;;;;;;8.34;57.45;100183.09;5015448;28;20030;-58
2021/04/26 11:09:43;;;;;;;5.55;3.80;;;;;;;8.35;57.51;100183.94;5014999;28;20034;-58
2021/04/26 11:12:31;;;;;;;10.10;3.30;;;;;;;8.33;57.42;100177.91;4997473;28;20378;-58
2021/04/26 11:15:14;;;;;;;10.40;3.80;;;;;;;8.33;57.25;100173.59;5014763;28;20072;-58
2021/04/26 11:17:40;;;;;;;11.68;4.13;;;;;;;8.35;57.35;100163.28;5015111;28;20390;-58
2021/04/26 11:20:08;;;;;;;4.35;3.20;;;;;;;8.35;57.13;100159.03;4997513;28;20210;-58
2021/04/26 11:22:34;;;;;;;7.40;3.35;;;;;;;8.38;57.18;100158.22;4981180;28;20042;-58
2021/04/26 11:25:04;;;;;;;6.22;3.63;;;;;;;8.37;56.90;100159.03;5014933;28;20049;-58
2021/04/26 11:27:30;;;;;;;10.00;3.13;;;;;;;8.37;56.89;100148.72;5014786;28;20121;-58
2021/04/26 11:29:56;;;;;;;8.45;4.25;;;;;;;8.36;57.26;100147.84;4997300;28;20383;-58
2021/04/26 11:32:24;;;;;;;8.27;3.15;;;;;;;8.37;56.96;100141.88;5014809;28;20133;-58
2021/04/26 11:34:50;;;;;;;5.85;3.20;;;;;;;8.38;56.83;100137.56;5014701;28;20473;-58
2021/04/26 11:37:23;;;;;;;8.23;3.40;;;;;;;8.40;57.09;100142.78;4997791;28;20117;-58
2021/04/26 11:39:53;;;;;;;10.63;4.20;;;;;;;8.39;56.67;100136.72;4980847;28;20041;-57
2021/04/26 11:42:30;;;;;;;12.50;4.10;;;;;;;8.41;56.88;100139.38;4996954;28;20486;-58
2021/04/26 11:44:56;;;;;;;9.55;3.83;;;;;;;8.42;56.58;100133.34;4997198;28;20061;-58
2021/04/26 11:47:23;;;;;;;11.63;3.85;;;;;;;8.42;56.76;100128.16;4996907;28;20030;-58
2021/04/26 11:49:52;;;;;;;5.93;3.30;;;;;;;8.42;56.64;100123.00;4996993;28;20476;-58
2021/04/26 11:52:28;;;;;;;5.90;3.00;;;;;;;8.42;56.77;100110.09;4980743;28;20045;-58
2021/04/26 11:55:05;;;;;;;7.53;3.30;;;;;;;8.42;56.75;100102.34;4997056;28;20034;-58
2021/04/26 11:57:46;;;;;;;8.45;3.67;;;;;;;8.42;56.82;100102.34;5014438;28;20030;-58